sensor_id;sensor_type;location;lat;lon;timestamp;pressure;altitude;pressure_sealevel;temperature;humidity
20156;BME280;10238;49.556;10.956;2023-11-19T00:02:33;98349.31;;;5.27;0.00
20156;BME280;10238;49.556;10.956;2023-11-19T00:05:23;98341.53;;;5.25;0.00
20156;BME280;10238;49.556;10.956;2023-11-19T00:08:10;98357.34;;;5.25;0.00
20156;BME280;10238;49.556;10.956;2023-11-19T00:10:58;98365.97;;;5.27;0.00
20156;BME280;10238;49.556;10.956;2023-11-19T00:13:47;98358.06;;;5.27;0.00
20156;BME280;10238;49.556;10.956;2023-11-19T00:16:35;98353.53;;;5.29;0.00
20156;BME280;10238;49.556;10.956;2023-11-19T00:19:22;98345.63;;;5.29;0.00
20156;BME280;10238;49.556;10.956;2023-11-19T00:22:12;98355.19;;;5.30;0.00
20156;BME280;10238;49.556;10.956;2023-11-19T00:25:00;98348.25;;;5.29;0.00
20156;BME280;10238;49.556;10.956;2023-11-19T00:27:48;98346.31;;;5.31;0.00
20156;BME280;10238;49.556;10.956;2023-11-19T00:30:37;98331.47;;;5.30;0.00
20156;BME280;10238;49.556;10.956;2023-11-19T00:33:27;98322.59;;;5.31;0.00
20156;BME280;10238;49.556;10.956;2023-11-19T00:36:15;98315.53;;;5.32;0.00
20156;BME280;10238;49.556;10.956;2023-11-19T00:39:05;98315.53;;;5.32;0.00
20156;BME280;10238;49.556;10.956;2023-11-19T00:41:52;98310.28;;;5.32;0.00
20156;BME280;10238;49.556;10.956;2023-11-19T00:44:40;98301.41;;;5.33;0.00
20156;BME280;10238;49.556;10.956;2023-11-19T00:47:36;98288.09;;;5.34;0.00
20156;BME280;10238;49.556;10.956;2023-11-19T00:50:24;98272.28;;;5.34;0.00
20156;BME280;10238;49.556;10.956;2023-11-19T00:53:12;98277.56;;;5.34;0.00
20156;BME280;10238;49.556;10.956;2023-11-19T00:56:01;98292.41;;;5.35;0.00
20156;BME280;10238;49.556;10.956;2023-11-19T00:58:49;98287.84;;;5.37;0.00
20156;BME280;10238;49.556;10.956;2023-11-19T01:01:36;98293.97;;;5.38;0.00
20156;BME280;10238;49.556;10.956;2023-11-19T01:04:24;98304.41;;;5.39;0.00
20156;BME280;10238;49.556;10.956;2023-11-19T01:07:12;98299.00;;;5.41;0.00
20156;BME280;10238;49.556;10.956;2023-11-19T01:10:00;98294.53;;;5.41;0.00
20156;BME280;10238;49.556;10.956;2023-11-19T01:12:51;98297.19;;;5.41;0.00
20156;BME280;10238;49.556;10.956;2023-11-19T01:15:39;98290.97;;;5.42;0.00
20156;BME280;10238;49.556;10.956;2023-11-19T01:18:27;98297.91;;;5.43;0.00
20156;BME280;10238;49.556;10.956;2023-11-19T01:21:15;98302.94;;;5.46;0.00
20156;BME280;10238;49.556;10.956;2023-11-19T01:24:04;98287.13;;;5.46;0.00
20156;BME280;10238;49.556;10.956;2023-11-19T01:26:55;98290.59;;;5.47;0.00
20156;BME280;10238;49.556;10.956;2023-11-19T01:29:45;98292.13;;;5.49;0.00
20156;BME280;10238;49.556;10.956;2023-11-19T01:32:33;98286.88;;;5.49;0.00
20156;BME280;10238;49.556;10.956;2023-11-19T01:35:24;98284.09;;;5.51;0.00
20156;BME280;10238;49.556;10.956;2023-11-19T01:38:13;98269.09;;;5.51;0.00
20156;BME280;10238;49.556;10.956;2023-11-19T01:41:01;98254.97;;;5.52;0.00
20156;BME280;10238;49.556;10.956;2023-11-19T01:43:49;98250.41;;;5.54;0.00
20156;BME280;10238;49.556;10.956;2023-11-19T01:46:40;98248.63;;;5.55;0.00
20156;BME280;10238;49.556;10.956;2023-11-19T01:49:31;98223.09;;;5.55;0.00
20156;BME280;10238;49.556;10.956;2023-11-19T01:52:20;98225.63;;;5.57;0.00
20156;BME280;10238;49.556;10.956;2023-11-19T01:55:10;98209.66;;;5.58;0.00
20156;BME280;10238;49.556;10.956;2023-11-19T01:58:01;98217.56;;;5.58;0.00
20156;BME280;10238;49.556;10.956;2023-11-19T02:00:49;98223.53;;;5.60;0.00
20156;BME280;10238;49.556;10.956;2023-11-19T02:03:38;98214.69;;;5.61;0.00
20156;BME280;10238;49.556;10.956;2023-11-19T02:06:28;98218.13;;;5.62;0.00
20156;BME280;10238;49.556;10.956;2023-11-19T02:09:15;98215.38;;;5.63;0.00
20156;BME280;10238;49.556;10.956;2023-11-19T02:12:07;98215.38;;;5.63;0.00
20156;BME280;10238;49.556;10.956;2023-11-19T02:14:54;98221.38;;;5.65;0.00
20156;BME280;10238;49.556;10.956;2023-11-19T02:17:42;98217.38;;;5.71;0.00
20156;BME280;10238;49.556;10.956;2023-11-19T02:20:31;98220.13;;;5.69;0.00
20156;BME280;10238;49.556;10.956;2023-11-19T02:23:20;98225.16;;;5.72;0.00
20156;BME280;10238;49.556;10.956;2023-11-19T02:26:18;98217.13;;;5.74;0.00
20156;BME280;10238;49.556;10.956;2023-11-19T02:29:11;98214.34;;;5.75;0.00
20156;BME280;10238;49.556;10.956;2023-11-19T02:31:59;98213.38;;;5.76;0.00
20156;BME280;10238;49.556;10.956;2023-11-19T02:34:49;98207.41;;;5.74;0.00
20156;BME280;10238;49.556;10.956;2023-11-19T02:37:39;98219.63;;;5.75;0.00
20156;BME280;10238;49.556;10.956;2023-11-19T02:40:27;98214.34;;;5.75;0.00
20156;BME280;10238;49.556;10.956;2023-11-19T02:43:15;98209.94;;;5.76;0.00
20156;BME280;10238;49.556;10.956;2023-11-19T02:46:06;98216.88;;;5.77;0.00
20156;BME280;10238;49.556;10.956;2023-11-19T02:48:57;98223.94;;;5.76;0.00
20156;BME280;10238;49.556;10.956;2023-11-19T02:51:44;98200.19;;;5.76;0.00
20156;BME280;10238;49.556;10.956;2023-11-19T02:54:32;98191.59;;;5.74;0.00
20156;BME280;10238;49.556;10.956;2023-11-19T02:57:21;98199.38;;;5.76;0.00
20156;BME280;10238;49.556;10.956;2023-11-19T03:00:10;98192.03;;;5.79;0.00
20156;BME280;10238;49.556;10.956;2023-11-19T03:03:00;98178.72;;;5.81;0.00
20156;BME280;10238;49.556;10.956;2023-11-19T03:05:57;98182.22;;;5.81;0.00
20156;BME280;10238;49.556;10.956;2023-11-19T03:08:45;98183.91;;;5.82;0.00
20156;BME280;10238;49.556;10.956;2023-11-19T03:11:32;98170.56;;;5.84;0.00
20156;BME280;10238;49.556;10.956;2023-11-19T03:14:20;98158.25;;;5.84;0.00
20156;BME280;10238;49.556;10.956;2023-11-19T03:17:09;98152.97;;;5.84;0.00
20156;BME280;10238;49.556;10.956;2023-11-19T03:19:58;98155.59;;;5.84;0.00
20156;BME280;10238;49.556;10.956;2023-11-19T03:22:46;98159.22;;;5.83;0.00
20156;BME280;10238;49.556;10.956;2023-11-19T03:25:36;98143.38;;;5.83;0.00
20156;BME280;10238;49.556;10.956;2023-11-19T03:28:24;98138.94;;;5.84;0.00
20156;BME280;10238;49.556;10.956;2023-11-19T03:31:12;98117.69;;;5.85;0.00
20156;BME280;10238;49.556;10.956;2023-11-19T03:34:00;98101.75;;;5.87;0.00
20156;BME280;10238;49.556;10.956;2023-11-19T03:36:49;98043.72;;;5.87;0.00
20156;BME280;10238;49.556;10.956;2023-11-19T03:39:37;98020.97;;;5.86;0.00
20156;BME280;10238;49.556;10.956;2023-11-19T03:42:25;98017.34;;;5.87;0.00
20156;BME280;10238;49.556;10.956;2023-11-19T03:45:13;98019.00;;;5.88;0.00
20156;BME280;10238;49.556;10.956;2023-11-19T03:48:02;98026.91;;;5.88;0.00
20156;BME280;10238;49.556;10.956;2023-11-19T03:50:50;98053.16;;;5.89;0.00
20156;BME280;10238;49.556;10.956;2023-11-19T03:53:39;98062.06;;;5.88;0.00
20156;BME280;10238;49.556;10.956;2023-11-19T03:56:26;98053.16;;;5.89;0.00
20156;BME280;10238;49.556;10.956;2023-11-19T03:59:14;98051.25;;;5.91;0.00
20156;BME280;10238;49.556;10.956;2023-11-19T04:02:02;98057.91;;;5.95;0.00
20156;BME280;10238;49.556;10.956;2023-11-19T04:04:50;98071.81;;;5.97;0.00
20156;BME280;10238;49.556;10.956;2023-11-19T04:07:37;98064.59;;;5.99;0.82
20156;BME280;10238;49.556;10.956;2023-11-19T04:10:26;98073.19;;;6.01;1.92
20156;BME280;10238;49.556;10.956;2023-11-19T04:13:14;98075.84;;;6.01;2.67
20156;BME280;10238;49.556;10.956;2023-11-19T04:16:02;98081.84;;;6.03;3.42
20156;BME280;10238;49.556;10.956;2023-11-19T04:18:51;98078.22;;;6.04;3.19
20156;BME280;10238;49.556;10.956;2023-11-19T04:21:40;98077.09;;;6.07;3.10
20156;BME280;10238;49.556;10.956;2023-11-19T04:24:28;98083.94;;;6.09;2.75
20156;BME280;10238;49.556;10.956;2023-11-19T04:27:17;98085.47;;;6.12;2.14
20156;BME280;10238;49.556;10.956;2023-11-19T04:30:06;98087.00;;;6.14;2.49
20156;BME280;10238;49.556;10.956;2023-11-19T04:32:56;98074.66;;;6.15;2.57
20156;BME280;10238;49.556;10.956;2023-11-19T04:35:44;98087.72;;;6.16;3.45
20156;BME280;10238;49.556;10.956;2023-11-19T04:38:31;98088.56;;;6.17;4.01
20156;BME280;10238;49.556;10.956;2023-11-19T04:41:19;98069.94;;;6.18;6.72
20156;BME280;10238;49.556;10.956;2023-11-19T04:44:08;98069.66;;;6.21;7.41
20156;BME280;10238;49.556;10.956;2023-11-19T04:46:55;98063.56;;;6.21;7.44
20156;BME280;10238;49.556;10.956;2023-11-19T04:49:44;98074.78;;;6.23;7.90
20156;BME280;10238;49.556;10.956;2023-11-19T04:52:32;98080.22;;;6.21;8.28
20156;BME280;10238;49.556;10.956;2023-11-19T04:55:19;98073.84;;;6.24;7.74
20156;BME280;10238;49.556;10.956;2023-11-19T04:58:07;98078.00;;;6.26;8.18
20156;BME280;10238;49.556;10.956;2023-11-19T05:00:56;98064.69;;;6.28;8.05
20156;BME280;10238;49.556;10.956;2023-11-19T05:03:44;98075.50;;;6.25;8.46
20156;BME280;10238;49.556;10.956;2023-11-19T05:06:32;98066.47;;;6.27;8.05
20156;BME280;10238;49.556;10.956;2023-11-19T05:09:21;98072.19;;;6.32;9.04
20156;BME280;10238;49.556;10.956;2023-11-19T05:12:09;98060.53;;;6.35;8.91
20156;BME280;10238;49.556;10.956;2023-11-19T05:14:58;98053.44;;;6.35;8.37
20156;BME280;10238;49.556;10.956;2023-11-19T05:17:47;98057.63;;;6.38;8.20
20156;BME280;10238;49.556;10.956;2023-11-19T05:20:35;98052.19;;;6.39;6.80
20156;BME280;10238;49.556;10.956;2023-11-19T05:23:23;98042.34;;;6.41;6.60
20156;BME280;10238;49.556;10.956;2023-11-19T05:26:18;98028.16;;;6.42;6.70
20156;BME280;10238;49.556;10.956;2023-11-19T05:29:06;98028.88;;;6.44;6.80
20156;BME280;10238;49.556;10.956;2023-11-19T05:31:54;98029.56;;;6.46;7.02
20156;BME280;10238;49.556;10.956;2023-11-19T05:34:43;98027.63;;;6.48;7.07
20156;BME280;10238;49.556;10.956;2023-11-19T05:37:34;98020.56;;;6.49;6.34
20156;BME280;10238;49.556;10.956;2023-11-19T05:40:22;98023.88;;;6.51;6.84
20156;BME280;10238;49.556;10.956;2023-11-19T05:43:09;98029.00;;;6.52;6.47
20156;BME280;10238;49.556;10.956;2023-11-19T05:45:57;98022.78;;;6.53;6.88
20156;BME280;10238;49.556;10.956;2023-11-19T05:48:45;98022.47;;;6.56;6.16
20156;BME280;10238;49.556;10.956;2023-11-19T05:51:38;98026.94;;;6.56;6.00
20156;BME280;10238;49.556;10.956;2023-11-19T05:54:26;98030.25;;;6.58;6.57
20156;BME280;10238;49.556;10.956;2023-11-19T05:57:16;98023.03;;;6.60;6.96
20156;BME280;10238;49.556;10.956;2023-11-19T06:00:08;98021.78;;;6.64;8.44
20156;BME280;10238;49.556;10.956;2023-11-19T06:02:56;98025.00;;;6.68;8.36
20156;BME280;10238;49.556;10.956;2023-11-19T06:05:45;98023.06;;;6.70;8.34
20156;BME280;10238;49.556;10.956;2023-11-19T06:08:34;98025.72;;;6.70;8.68
20156;BME280;10238;49.556;10.956;2023-11-19T06:11:23;98025.84;;;6.68;8.44
20156;BME280;10238;49.556;10.956;2023-11-19T06:14:13;98016.81;;;6.71;7.54
20156;BME280;10238;49.556;10.956;2023-11-19T06:17:00;98016.13;;;6.78;7.57
20156;BME280;10238;49.556;10.956;2023-11-19T06:19:48;98025.56;;;6.81;8.28
20156;BME280;10238;49.556;10.956;2023-11-19T06:22:35;98019.44;;;6.80;9.16
20156;BME280;10238;49.556;10.956;2023-11-19T06:25:25;98030.84;;;6.90;9.52
20156;BME280;10238;49.556;10.956;2023-11-19T06:28:13;98030.41;;;6.95;9.80
20156;BME280;10238;49.556;10.956;2023-11-19T06:31:01;98018.59;;;6.99;10.06
20156;BME280;10238;49.556;10.956;2023-11-19T06:33:49;98018.31;;;7.02;20.36
20156;BME280;10238;49.556;10.956;2023-11-19T06:36:36;98019.69;;;7.06;38.26
20156;BME280;10238;49.556;10.956;2023-11-19T06:39:25;98014.81;;;7.11;38.93
20156;BME280;10238;49.556;10.956;2023-11-19T06:42:14;98015.22;;;7.16;39.18
20156;BME280;10238;49.556;10.956;2023-11-19T06:45:02;98019.25;;;7.20;39.89
20156;BME280;10238;49.556;10.956;2023-11-19T06:47:50;98016.31;;;7.23;40.68
20156;BME280;10238;49.556;10.956;2023-11-19T06:50:40;98016.31;;;7.32;40.67
20156;BME280;10238;49.556;10.956;2023-11-19T06:53:28;98018.50;;;7.46;39.93
20156;BME280;10238;49.556;10.956;2023-11-19T06:56:20;98018.44;;;7.65;41.85
20156;BME280;10238;49.556;10.956;2023-11-19T06:59:09;98020.38;;;7.73;42.25
20156;BME280;10238;49.556;10.956;2023-11-19T07:01:57;98027.81;;;7.87;44.25
20156;BME280;10238;49.556;10.956;2023-11-19T07:04:45;98023.47;;;7.95;45.21
20156;BME280;10238;49.556;10.956;2023-11-19T07:07:33;98023.84;;;8.00;45.68
20156;BME280;10238;49.556;10.956;2023-11-19T07:10:22;98028.81;;;8.13;52.74
20156;BME280;10238;49.556;10.956;2023-11-19T07:13:09;98023.22;;;8.16;53.58
20156;BME280;10238;49.556;10.956;2023-11-19T07:15:58;98019.22;;;8.39;52.08
20156;BME280;10238;49.556;10.956;2023-11-19T07:18:46;98023.94;;;8.45;58.48
20156;BME280;10238;49.556;10.956;2023-11-19T07:21:36;98021.03;;;8.56;61.52
20156;BME280;10238;49.556;10.956;2023-11-19T07:24:26;98020.00;;;8.49;62.99
20156;BME280;10238;49.556;10.956;2023-11-19T07:27:15;98032.53;;;8.47;64.19
20156;BME280;10238;49.556;10.956;2023-11-19T07:30:04;98030.06;;;8.63;64.23
20156;BME280;10238;49.556;10.956;2023-11-19T07:32:54;98029.09;;;8.82;63.53
20156;BME280;10238;49.556;10.956;2023-11-19T07:35:43;98038.25;;;8.87;68.83
20156;BME280;10238;49.556;10.956;2023-11-19T07:38:31;98040.81;;;8.79;74.64
20156;BME280;10238;49.556;10.956;2023-11-19T07:41:18;98040.59;;;8.90;75.74
20156;BME280;10238;49.556;10.956;2023-11-19T07:44:06;98029.09;;;8.99;81.65
20156;BME280;10238;49.556;10.956;2023-11-19T07:46:54;98041.09;;;9.11;100.00
20156;BME280;10238;49.556;10.956;2023-11-19T07:49:43;98040.13;;;9.12;100.00
20156;BME280;10238;49.556;10.956;2023-11-19T07:52:31;98034.13;;;9.10;100.00
20156;BME280;10238;49.556;10.956;2023-11-19T07:55:18;98038.69;;;9.18;100.00
20156;BME280;10238;49.556;10.956;2023-11-19T07:58:07;98037.22;;;9.23;100.00
20156;BME280;10238;49.556;10.956;2023-11-19T08:00:55;98033.22;;;9.19;100.00
20156;BME280;10238;49.556;10.956;2023-11-19T08:03:42;98033.50;;;9.34;100.00
20156;BME280;10238;49.556;10.956;2023-11-19T08:06:46;98042.81;;;9.38;100.00
20156;BME280;10238;49.556;10.956;2023-11-19T08:09:34;98039.34;;;9.37;100.00
20156;BME280;10238;49.556;10.956;2023-11-19T08:12:21;98037.03;;;9.42;100.00
20156;BME280;10238;49.556;10.956;2023-11-19T08:15:10;98040.41;;;9.52;100.00
20156;BME280;10238;49.556;10.956;2023-11-19T08:17:57;98029.34;;;9.57;100.00
20156;BME280;10238;49.556;10.956;2023-11-19T08:20:45;98034.66;;;9.57;100.00
20156;BME280;10238;49.556;10.956;2023-11-19T08:23:38;98042.13;;;9.61;100.00
20156;BME280;10238;49.556;10.956;2023-11-19T08:26:26;98029.91;;;9.68;100.00
20156;BME280;10238;49.556;10.956;2023-11-19T08:29:13;98027.31;;;9.76;100.00
20156;BME280;10238;49.556;10.956;2023-11-19T08:32:01;98031.63;;;9.77;100.00
20156;BME280;10238;49.556;10.956;2023-11-19T08:34:50;98035.28;;;9.76;100.00
20156;BME280;10238;49.556;10.956;2023-11-19T08:37:38;98019.69;;;9.81;100.00
20156;BME280;10238;49.556;10.956;2023-11-19T08:40:35;98018.09;;;9.88;100.00
20156;BME280;10238;49.556;10.956;2023-11-19T08:43:23;98022.75;;;9.94;100.00
20156;BME280;10238;49.556;10.956;2023-11-19T08:46:12;98017.13;;;9.97;100.00
20156;BME280;10238;49.556;10.956;2023-11-19T08:49:00;98018.22;;;10.12;100.00
20156;BME280;10238;49.556;10.956;2023-11-19T08:51:47;98016.88;;;10.08;100.00
20156;BME280;10238;49.556;10.956;2023-11-19T08:54:35;98011.91;;;10.13;100.00
20156;BME280;10238;49.556;10.956;2023-11-19T08:57:24;98010.31;;;10.28;100.00
20156;BME280;10238;49.556;10.956;2023-11-19T09:00:12;98014.97;;;10.34;100.00
20156;BME280;10238;49.556;10.956;2023-11-19T09:03:02;98005.88;;;10.45;100.00
20156;BME280;10238;49.556;10.956;2023-11-19T09:05:50;98022.63;;;10.45;100.00
20156;BME280;10238;49.556;10.956;2023-11-19T09:08:38;98024.31;;;10.54;100.00
20156;BME280;10238;49.556;10.956;2023-11-19T09:11:25;98013.03;;;10.60;100.00
20156;BME280;10238;49.556;10.956;2023-11-19T09:14:15;98026.00;;;10.63;100.00
20156;BME280;10238;49.556;10.956;2023-11-19T09:17:03;98026.69;;;10.73;100.00
20156;BME280;10238;49.556;10.956;2023-11-19T09:19:51;98046.84;;;10.92;100.00
20156;BME280;10238;49.556;10.956;2023-11-19T09:22:39;98050.66;;;11.06;100.00
20156;BME280;10238;49.556;10.956;2023-11-19T09:25:26;98048.34;;;11.11;100.00
20156;BME280;10238;49.556;10.956;2023-11-19T09:28:31;98058.16;;;11.18;100.00
20156;BME280;10238;49.556;10.956;2023-11-19T09:31:20;98060.66;;;11.28;100.00
20156;BME280;10238;49.556;10.956;2023-11-19T09:34:08;98071.16;;;11.37;100.00
20156;BME280;10238;49.556;10.956;2023-11-19T09:36:55;98064.31;;;11.43;100.00
20156;BME280;10238;49.556;10.956;2023-11-19T09:39:43;98066.63;;;11.54;100.00
20156;BME280;10238;49.556;10.956;2023-11-19T09:42:40;98057.16;;;11.59;100.00
20156;BME280;10238;49.556;10.956;2023-11-19T09:45:40;98053.69;;;11.67;97.17
20156;BME280;10238;49.556;10.956;2023-11-19T09:48:36;98058.47;;;11.79;92.74
20156;BME280;10238;49.556;10.956;2023-11-19T09:51:24;98054.94;;;11.95;88.24
20156;BME280;10238;49.556;10.956;2023-11-19T09:54:12;98053.91;;;12.12;100.00
20156;BME280;10238;49.556;10.956;2023-11-19T09:57:02;98057.84;;;12.24;100.00
20156;BME280;10238;49.556;10.956;2023-11-19T09:59:53;98058.16;;;12.29;85.83
20156;BME280;10238;49.556;10.956;2023-11-19T10:02:44;98048.53;;;12.28;63.54
20156;BME280;10238;49.556;10.956;2023-11-19T10:05:35;98050.88;;;12.23;61.97
20156;BME280;10238;49.556;10.956;2023-11-19T10:08:25;98038.56;;;12.22;77.25
20156;BME280;10238;49.556;10.956;2023-11-19T10:11:13;98041.16;;;12.30;85.06
20156;BME280;10238;49.556;10.956;2023-11-19T10:14:01;98042.84;;;12.31;93.55
20156;BME280;10238;49.556;10.956;2023-11-19T10:16:49;98041.50;;;12.35;100.00
20156;BME280;10238;49.556;10.956;2023-11-19T10:19:39;98047.00;;;12.33;100.00
20156;BME280;10238;49.556;10.956;2023-11-19T10:22:29;98036.00;;;12.36;100.00
20156;BME280;10238;49.556;10.956;2023-11-19T10:25:25;98038.31;;;12.39;100.00
20156;BME280;10238;49.556;10.956;2023-11-19T10:28:15;98030.47;;;12.38;100.00
20156;BME280;10238;49.556;10.956;2023-11-19T10:31:05;98029.13;;;12.42;100.00
20156;BME280;10238;49.556;10.956;2023-11-19T10:33:54;98026.47;;;12.42;100.00
20156;BME280;10238;49.556;10.956;2023-11-19T10:36:41;98025.63;;;12.41;100.00
20156;BME280;10238;49.556;10.956;2023-11-19T10:39:52;98030.78;;;12.43;100.00
20156;BME280;10238;49.556;10.956;2023-11-19T10:42:42;98024.63;;;12.42;100.00
20156;BME280;10238;49.556;10.956;2023-11-19T10:45:29;98032.28;;;12.45;100.00
20156;BME280;10238;49.556;10.956;2023-11-19T10:48:18;98033.41;;;12.51;100.00
20156;BME280;10238;49.556;10.956;2023-11-19T10:51:07;98042.88;;;12.53;100.00
20156;BME280;10238;49.556;10.956;2023-11-19T10:54:02;98031.06;;;12.56;100.00
20156;BME280;10238;49.556;10.956;2023-11-19T10:56:58;98029.34;;;12.63;100.00
20156;BME280;10238;49.556;10.956;2023-11-19T10:59:49;98024.31;;;12.68;100.00
20156;BME280;10238;49.556;10.956;2023-11-19T11:02:43;98012.59;;;12.77;100.00
20156;BME280;10238;49.556;10.956;2023-11-19T11:05:33;98016.16;;;12.92;100.00
20156;BME280;10238;49.556;10.956;2023-11-19T11:08:21;97995.78;;;12.99;100.00
20156;BME280;10238;49.556;10.956;2023-11-19T11:11:15;97996.09;;;13.04;100.00
20156;BME280;10238;49.556;10.956;2023-11-19T11:14:06;97982.84;;;13.11;100.00
20156;BME280;10238;49.556;10.956;2023-11-19T11:16:58;97980.13;;;13.19;100.00
20156;BME280;10238;49.556;10.956;2023-11-19T11:19:46;97978.22;;;13.27;100.00
20156;BME280;10238;49.556;10.956;2023-11-19T11:22:44;97982.13;;;13.39;100.00
20156;BME280;10238;49.556;10.956;2023-11-19T11:25:49;97968.69;;;13.47;100.00
20156;BME280;10238;49.556;10.956;2023-11-19T11:28:48;97963.63;;;13.52;100.00
20156;BME280;10238;49.556;10.956;2023-11-19T11:31:52;97975.69;;;13.63;100.00
20156;BME280;10238;49.556;10.956;2023-11-19T11:35:14;97966.94;;;13.69;100.00
20156;BME280;10238;49.556;10.956;2023-11-19T11:38:08;97956.81;;;13.64;100.00
20156;BME280;10238;49.556;10.956;2023-11-19T11:41:19;97947.13;;;13.63;100.00
20156;BME280;10238;49.556;10.956;2023-11-19T11:44:07;97954.53;;;13.61;100.00
20156;BME280;10238;49.556;10.956;2023-11-19T11:46:57;97965.84;;;13.63;100.00
20156;BME280;10238;49.556;10.956;2023-11-19T11:49:45;97974.75;;;13.70;100.00
20156;BME280;10238;49.556;10.956;2023-11-19T11:52:36;97962.44;;;13.69;100.00
20156;BME280;10238;49.556;10.956;2023-11-19T11:55:57;97953.03;;;13.73;100.00
20156;BME280;10238;49.556;10.956;2023-11-19T11:58:46;97955.63;;;13.81;100.00
20156;BME280;10238;49.556;10.956;2023-11-19T12:01:35;97954.25;;;13.85;100.00
20156;BME280;10238;49.556;10.956;2023-11-19T12:04:28;97947.41;;;13.97;100.00
20156;BME280;10238;49.556;10.956;2023-11-19T12:07:20;97941.34;;;14.03;100.00
20156;BME280;10238;49.556;10.956;2023-11-19T12:10:11;97946.03;;;14.01;100.00
20156;BME280;10238;49.556;10.956;2023-11-19T12:13:00;97951.13;;;13.96;100.00
20156;BME280;10238;49.556;10.956;2023-11-19T12:16:07;97949.19;;;13.90;100.00
20156;BME280;10238;49.556;10.956;2023-11-19T12:18:56;97958.91;;;13.83;100.00
20156;BME280;10238;49.556;10.956;2023-11-19T12:21:45;97956.72;;;13.72;100.00
20156;BME280;10238;49.556;10.956;2023-11-19T12:24:34;97940.88;;;13.56;100.00
20156;BME280;10238;49.556;10.956;2023-11-19T12:27:22;97940.31;;;13.46;100.00
20156;BME280;10238;49.556;10.956;2023-11-19T12:30:11;97951.91;;;13.39;100.00
20156;BME280;10238;49.556;10.956;2023-11-19T12:32:58;97950.50;;;13.28;100.00
20156;BME280;10238;49.556;10.956;2023-11-19T12:35:48;97958.06;;;13.25;100.00
20156;BME280;10238;49.556;10.956;2023-11-19T12:38:37;97948.09;;;13.19;100.00
20156;BME280;10238;49.556;10.956;2023-11-19T12:41:25;97957.00;;;13.11;100.00
20156;BME280;10238;49.556;10.956;2023-11-19T12:44:12;97952.03;;;13.08;100.00
20156;BME280;10238;49.556;10.956;2023-11-19T12:47:02;97952.38;;;13.05;100.00
20156;BME280;10238;49.556;10.956;2023-11-19T12:49:56;97952.22;;;13.07;100.00
20156;BME280;10238;49.556;10.956;2023-11-19T12:52:43;97949.38;;;13.08;100.00
20156;BME280;10238;49.556;10.956;2023-11-19T12:55:44;97952.22;;;13.07;100.00
20156;BME280;10238;49.556;10.956;2023-11-19T12:58:33;97937.75;;;13.01;100.00
20156;BME280;10238;49.556;10.956;2023-11-19T13:01:22;97948.94;;;12.96;100.00
20156;BME280;10238;49.556;10.956;2023-11-19T13:04:17;97948.81;;;12.90;100.00
20156;BME280;10238;49.556;10.956;2023-11-19T13:07:05;97938.66;;;12.85;100.00
20156;BME280;10238;49.556;10.956;2023-11-19T13:10:01;97938.50;;;12.87;100.00
20156;BME280;10238;49.556;10.956;2023-11-19T13:13:05;97941.81;;;12.89;100.00
20156;BME280;10238;49.556;10.956;2023-11-19T13:16:01;97943.13;;;12.93;100.00
20156;BME280;10238;49.556;10.956;2023-11-19T13:18:50;97943.28;;;12.99;100.00
20156;BME280;10238;49.556;10.956;2023-11-19T13:21:39;97934.06;;;13.02;100.00
20156;BME280;10238;49.556;10.956;2023-11-19T13:24:27;97933.56;;;12.98;100.00
20156;BME280;10238;49.556;10.956;2023-11-19T13:27:15;97934.47;;;12.91;100.00
20156;BME280;10238;49.556;10.956;2023-11-19T13:30:07;97924.53;;;12.85;100.00
20156;BME280;10238;49.556;10.956;2023-11-19T13:33:13;97915.56;;;12.78;100.00
20156;BME280;10238;49.556;10.956;2023-11-19T13:36:01;97902.97;;;12.72;100.00
20156;BME280;10238;49.556;10.956;2023-11-19T13:38:52;97899.63;;;12.70;100.00
20156;BME280;10238;49.556;10.956;2023-11-19T13:41:45;97892.28;;;12.72;100.00
20156;BME280;10238;49.556;10.956;2023-11-19T13:44:33;97895.38;;;12.83;100.00
20156;BME280;10238;49.556;10.956;2023-11-19T13:47:22;97885.44;;;12.92;100.00
20156;BME280;10238;49.556;10.956;2023-11-19T13:50:12;97887.09;;;12.93;100.00
20156;BME280;10238;49.556;10.956;2023-11-19T13:53:00;97886.41;;;12.99;100.00
20156;BME280;10238;49.556;10.956;2023-11-19T13:55:47;97882.00;;;13.06;100.00
20156;BME280;10238;49.556;10.956;2023-11-19T13:58:35;97875.28;;;13.10;100.00
20156;BME280;10238;49.556;10.956;2023-11-19T14:01:25;97869.94;;;13.10;100.00
20156;BME280;10238;49.556;10.956;2023-11-19T14:04:15;97888.91;;;13.15;100.00
20156;BME280;10238;49.556;10.956;2023-11-19T14:07:03;97879.53;;;13.19;100.00
20156;BME280;10238;49.556;10.956;2023-11-19T14:09:51;97879.16;;;13.22;100.00
20156;BME280;10238;49.556;10.956;2023-11-19T14:12:38;97879.81;;;13.24;100.00
20156;BME280;10238;49.556;10.956;2023-11-19T14:15:26;97887.47;;;13.27;100.00
20156;BME280;10238;49.556;10.956;2023-11-19T14:18:15;97893.81;;;13.26;100.00
20156;BME280;10238;49.556;10.956;2023-11-19T14:21:04;97884.31;;;13.24;100.00
20156;BME280;10238;49.556;10.956;2023-11-19T14:23:52;97890.84;;;13.21;100.00
20156;BME280;10238;49.556;10.956;2023-11-19T14:26:40;97888.72;;;13.17;100.00
20156;BME280;10238;49.556;10.956;2023-11-19T14:29:28;97885.94;;;13.10;100.00
20156;BME280;10238;49.556;10.956;2023-11-19T14:32:17;97886.16;;;13.09;100.00
20156;BME280;10238;49.556;10.956;2023-11-19T14:35:06;97873.00;;;13.07;100.00
20156;BME280;10238;49.556;10.956;2023-11-19T14:37:56;97870.69;;;13.04;100.00
20156;BME280;10238;49.556;10.956;2023-11-19T14:40:43;97864.03;;;13.00;100.00
20156;BME280;10238;49.556;10.956;2023-11-19T14:43:30;97868.25;;;12.94;100.00
20156;BME280;10238;49.556;10.956;2023-11-19T14:46:18;97870.81;;;12.88;100.00
20156;BME280;10238;49.556;10.956;2023-11-19T14:49:07;97869.78;;;12.89;100.00
20156;BME280;10238;49.556;10.956;2023-11-19T14:51:54;97892.16;;;12.88;100.00
20156;BME280;10238;49.556;10.956;2023-11-19T14:54:43;97883.69;;;12.84;100.00